createdAt,value
2018-02-24T00:01:43.525Z,10.77
2018-02-24T00:04:11.030Z,9.45
2018-02-24T00:06:39.292Z,11.27
2018-02-24T00:09:06.810Z,9.80
2018-02-24T00:11:34.312Z,10.20
2018-02-24T00:14:01.821Z,9.50
2018-02-24T00:16:30.078Z,10.13
2018-02-24T00:18:57.593Z,10.68
2018-02-24T00:21:25.861Z,11.02
2018-02-24T00:23:53.376Z,9.20
2018-02-24T00:26:20.905Z,10.25
2018-02-24T00:28:48.488Z,10.43
2018-02-24T00:31:16.769Z,10.40
2018-02-24T00:33:44.268Z,10.10
2018-02-24T00:36:11.786Z,9.40
2018-02-24T00:38:39.287Z,9.63
2018-02-24T00:41:06.804Z,8.50
2018-02-24T00:43:34.301Z,10.02
2018-02-24T00:46:01.808Z,8.75
2018-02-24T00:48:29.306Z,9.02
2018-02-24T00:50:56.845Z,10.10
2018-02-24T00:53:24.413Z,10.23
2018-02-24T00:55:52.745Z,10.20
2018-02-24T00:58:20.278Z,11.63
2018-02-24T01:00:48.537Z,11.18
2018-02-24T01:03:16.045Z,9.60
2018-02-24T01:05:44.305Z,11.40
2018-02-24T01:08:11.809Z,9.80
2018-02-24T01:10:39.301Z,9.60
2018-02-24T01:13:06.812Z,9.60
2018-02-24T01:15:34.307Z,10.98
2018-02-24T01:18:02.590Z,10.70
2018-02-24T01:20:30.091Z,10.65
2018-02-24T01:22:57.651Z,10.10
2018-02-24T01:25:25.954Z,9.65
2018-02-24T01:27:53.500Z,10.85
2018-02-24T01:30:21.805Z,10.88
2018-02-24T01:32:49.330Z,11.43
2018-02-24T01:35:16.828Z,10.68
2018-02-24T01:37:45.130Z,11.55
2018-02-24T01:40:13.416Z,12.23
2018-02-24T01:42:41.703Z,10.15
2018-02-24T01:45:10.104Z,11.27
2018-02-24T01:47:37.608Z,11.70
2018-02-24T01:50:05.126Z,11.57
2018-02-24T01:52:32.625Z,11.68
2018-02-24T01:55:00.136Z,11.05
2018-02-24T01:57:27.729Z,10.68
2018-02-24T01:59:55.338Z,12.68
2018-02-24T02:02:22.999Z,11.63
2018-02-24T02:04:50.520Z,11.63
2018-02-24T02:07:18.016Z,11.48
2018-02-24T02:09:45.524Z,12.57
2018-02-24T02:12:13.790Z,11.55
2018-02-24T02:14:41.305Z,12.90
2018-02-24T02:17:08.847Z,11.95
2018-02-24T02:19:37.125Z,12.68
2018-02-24T02:22:04.708Z,12.15
2018-02-24T02:24:33.000Z,12.05
2018-02-24T02:27:01.256Z,14.18
2018-02-24T02:29:28.744Z,11.90
2018-02-24T02:31:56.345Z,12.70
2018-02-24T02:34:23.849Z,12.93
2018-02-24T02:36:51.456Z,13.27
2018-02-24T02:39:18.958Z,14.20
2018-02-24T02:41:46.512Z,14.75
2018-02-24T02:44:14.776Z,14.18
2018-02-24T02:46:42.374Z,13.57
2018-02-24T02:49:10.652Z,14.80
2018-02-24T02:51:39.061Z,13.73
2018-02-24T02:54:07.329Z,14.95
2018-02-24T02:56:34.925Z,14.02
2018-02-24T02:59:03.305Z,15.63
2018-02-24T03:01:31.567Z,14.48
2018-02-24T03:03:59.077Z,14.07
2018-02-24T03:06:27.341Z,14.95
2018-02-24T03:08:54.890Z,16.20
2018-02-24T03:11:22.411Z,15.27
2018-02-24T03:13:49.978Z,15.05
2018-02-24T03:16:18.240Z,15.40
2018-02-24T03:18:46.555Z,14.50
2018-02-24T03:21:14.812Z,15.35
2018-02-24T03:23:42.338Z,16.37
2018-02-24T03:26:09.844Z,16.33
2018-02-24T03:28:37.471Z,14.95
2018-02-24T03:31:05.030Z,16.40
2018-02-24T03:33:32.527Z,14.87
2018-02-24T03:36:00.044Z,14.43
2018-02-24T03:38:28.363Z,14.30
2018-02-24T03:40:56.657Z,16.10
2018-02-24T03:43:24.982Z,15.93
2018-02-24T03:45:54.548Z,16.52
2018-02-24T03:48:22.056Z,15.68
2018-02-24T03:50:49.570Z,15.57
2018-02-24T03:53:17.060Z,16.15
2018-02-24T03:55:44.584Z,15.77
2018-02-24T03:58:12.088Z,16.02
2018-02-24T04:00:39.689Z,17.37
2018-02-24T04:03:07.968Z,14.77
2018-02-24T04:05:35.460Z,13.40
2018-02-24T04:08:03.843Z,14.48
2018-02-24T04:10:32.101Z,13.68
2018-02-24T04:12:59.620Z,15.23
2018-02-24T04:15:27.195Z,13.40
2018-02-24T04:17:54.724Z,14.93
2018-02-24T04:20:22.258Z,13.88
2018-02-24T04:22:49.790Z,14.02
2018-02-24T04:25:18.074Z,13.55
2018-02-24T04:27:46.369Z,16.87
2018-02-24T04:30:14.628Z,15.82
2018-02-24T04:32:42.233Z,15.15
2018-02-24T04:35:10.526Z,15.88
2018-02-24T04:37:38.039Z,16.10
2018-02-24T04:40:05.662Z,15.90
2018-02-24T04:42:33.958Z,14.27
2018-02-24T04:45:02.246Z,15.80
2018-02-24T04:47:30.505Z,14.60
2018-02-24T04:49:58.044Z,14.05
2018-02-24T04:52:25.550Z,15.82
2018-02-24T04:54:53.862Z,14.20
2018-02-24T04:57:22.153Z,15.77
2018-02-24T04:59:50.436Z,14.80
2018-02-24T05:02:18.730Z,14.15
2018-02-24T05:04:46.254Z,15.27
2018-02-24T05:07:13.775Z,14.68
2018-02-24T05:09:42.071Z,14.23
2018-02-24T05:12:10.367Z,15.43
2018-02-24T05:14:37.864Z,14.68
2018-02-24T05:17:05.381Z,15.65
2018-02-24T05:19:32.880Z,14.85
2018-02-24T05:22:00.405Z,15.57
2018-02-24T05:24:27.905Z,16.52
2018-02-24T05:26:56.204Z,15.68
2018-02-24T05:29:24.492Z,17.30
2018-02-24T05:31:52.037Z,16.87
2018-02-24T05:34:19.628Z,19.37
2018-02-24T05:36:47.900Z,19.35
2018-02-24T05:39:15.397Z,19.30
2018-02-24T05:41:42.932Z,19.35
2018-02-24T05:44:10.440Z,19.27
2018-02-24T05:46:38.696Z,19.27
2018-02-24T05:49:06.207Z,21.42
2018-02-24T05:51:33.757Z,19.67
2018-02-24T05:54:02.033Z,14.75
2018-02-24T05:56:29.533Z,17.67
2018-02-24T05:58:57.838Z,15.35
2018-02-24T06:01:25.351Z,12.95
2018-02-24T06:03:52.888Z,13.00
2018-02-24T06:06:20.421Z,12.45
2018-02-24T06:08:48.705Z,12.70
2018-02-24T06:11:16.961Z,14.25
2018-02-24T06:13:44.475Z,12.70
2018-02-24T06:16:12.765Z,12.13
2018-02-24T06:18:41.028Z,11.65
2018-02-24T06:21:08.634Z,11.48
2018-02-24T06:23:36.202Z,12.70
2018-02-24T06:26:04.484Z,12.27
2018-02-24T06:28:32.777Z,12.57
2018-02-24T06:31:01.065Z,14.75
2018-02-24T06:33:29.328Z,12.75
2018-02-24T06:35:56.928Z,13.73
2018-02-24T06:38:25.203Z,12.55
2018-02-24T06:40:53.496Z,12.82
2018-02-24T06:43:21.777Z,14.07
2018-02-24T06:45:49.356Z,14.13
2018-02-24T06:48:17.620Z,14.77
2018-02-24T06:50:45.129Z,12.02
2018-02-24T06:53:12.665Z,12.13
2018-02-24T06:55:40.341Z,13.52
2018-02-24T06:58:07.863Z,12.15
2018-02-24T07:00:35.416Z,12.35
2018-02-24T07:03:03.698Z,13.38
2018-02-24T07:05:31.993Z,14.70
2018-02-24T07:08:00.273Z,12.75
2018-02-24T07:10:28.532Z,13.05
2018-02-24T07:12:56.056Z,14.15
2018-02-24T07:15:23.578Z,13.10
2018-02-24T07:17:51.120Z,13.70
2018-02-24T07:20:18.629Z,15.30
2018-02-24T07:22:46.135Z,13.77
2018-02-24T07:25:14.418Z,13.93
2018-02-24T07:27:42.702Z,14.63
2018-02-24T07:30:10.994Z,16.33
2018-02-24T07:32:39.256Z,16.27
2018-02-24T07:35:06.770Z,16.83
2018-02-24T07:37:34.329Z,16.40
2018-02-24T07:40:02.606Z,16.47
2018-02-24T07:42:30.906Z,17.47
2018-02-24T07:44:59.202Z,19.83
2018-02-24T07:47:27.477Z,18.40
2018-02-24T07:49:55.774Z,16.30
2018-02-24T07:52:24.069Z,19.13
2018-02-24T07:54:52.340Z,17.63
2018-02-24T07:57:20.642Z,15.83
2018-02-24T07:59:48.898Z,16.97
2018-02-24T08:02:17.174Z,17.90
2018-02-24T08:04:44.693Z,19.50
2018-02-24T08:07:12.968Z,16.90
2018-02-24T08:09:41.228Z,16.23
2018-02-24T08:12:08.740Z,16.20
2018-02-24T08:14:37.020Z,17.37
2018-02-24T08:17:05.412Z,17.30
2018-02-24T08:19:33.700Z,17.13
2018-02-24T08:22:01.982Z,16.13
2018-02-24T08:24:29.476Z,15.83
2018-02-24T08:26:57.757Z,15.43
2018-02-24T08:29:26.038Z,17.87
2018-02-24T08:31:54.303Z,14.73
2018-02-24T08:34:21.842Z,16.13
2018-02-24T08:36:49.367Z,15.80
2018-02-24T08:39:16.949Z,14.60
2018-02-24T08:41:45.203Z,14.77
2018-02-24T08:44:12.732Z,14.37
2018-02-24T08:46:40.226Z,13.63
2018-02-24T08:49:07.744Z,13.47
2018-02-24T08:51:36.001Z,14.43
2018-02-24T08:54:03.517Z,14.07
2018-02-24T08:56:31.772Z,13.90
2018-02-24T08:58:59.295Z,13.07
2018-02-24T09:01:26.790Z,12.83
2018-02-24T09:03:54.287Z,12.30
2018-02-24T09:06:21.805Z,12.17
2018-02-24T09:08:49.301Z,12.50
2018-02-24T09:11:16.804Z,11.37
2018-02-24T09:13:44.394Z,11.20
2018-02-24T09:16:12.788Z,12.07
2018-02-24T09:18:41.049Z,11.93
2018-02-24T09:21:08.573Z,12.00
2018-02-24T09:23:36.086Z,11.63
2018-02-24T09:26:03.628Z,11.83
2018-02-24T09:28:31.126Z,11.50
2018-02-24T09:30:58.617Z,11.50
2018-02-24T09:33:26.130Z,11.73
2018-02-24T09:35:53.623Z,11.07
2018-02-24T09:38:21.238Z,11.57
2018-02-24T09:40:49.510Z,11.33
2018-02-24T09:43:17.020Z,11.93
2018-02-24T09:45:44.768Z,10.80
2018-02-24T09:48:12.281Z,10.60
2018-02-24T09:50:39.782Z,11.33
2018-02-24T09:53:08.318Z,11.13
2018-02-24T09:55:36.600Z,11.80
2018-02-24T09:58:04.993Z,10.00
2018-02-24T10:00:33.252Z,11.20
2018-02-24T10:03:00.745Z,10.50
2018-02-24T10:05:28.258Z,9.07
2018-02-24T10:07:55.753Z,11.00
2018-02-24T10:10:23.269Z,10.23
2018-02-24T10:16:06.401Z,10.17
2018-02-24T10:18:33.902Z,9.07
2018-02-24T10:21:01.422Z,9.70
2018-02-24T10:23:28.920Z,10.73
2018-02-24T10:25:56.529Z,10.93
2018-02-24T10:28:24.103Z,10.27
2018-02-24T10:30:52.188Z,12.63
2018-02-24T10:33:20.801Z,11.57
2018-02-24T10:35:58.653Z,12.03
2018-02-24T10:38:26.153Z,12.30
2018-02-24T10:40:53.743Z,11.70
2018-02-24T10:43:22.033Z,12.57
2018-02-24T10:46:00.950Z,11.70
2018-02-24T10:48:28.439Z,11.77
2018-02-24T10:50:56.842Z,10.90
2018-02-24T10:53:24.413Z,9.60
2018-02-24T10:55:52.354Z,11.37
2018-02-24T10:58:20.226Z,10.37
2018-02-24T11:00:48.739Z,9.80
2018-02-24T11:03:16.568Z,9.57
2018-02-24T11:05:44.919Z,9.57
2018-02-24T11:08:12.487Z,8.50
2018-02-24T11:10:39.990Z,7.27
2018-02-24T11:13:07.662Z,8.43
2018-02-24T11:15:35.284Z,8.93
2018-02-24T11:18:03.619Z,9.07
2018-02-24T11:20:31.905Z,8.20
2018-02-24T11:23:00.367Z,8.20
2018-02-24T11:25:28.169Z,8.10
2018-02-24T11:27:55.662Z,7.57
2018-02-24T11:30:24.574Z,8.60
2018-02-24T11:32:52.702Z,8.70
2018-02-24T11:35:20.263Z,8.50
2018-02-24T11:37:47.974Z,9.67
2018-02-24T11:40:17.419Z,8.97
2018-02-24T11:42:44.983Z,9.93
2018-02-24T11:45:12.545Z,9.40
2018-02-24T11:47:40.830Z,9.47
2018-02-24T11:50:09.459Z,8.83
2018-02-24T11:52:37.234Z,8.87
2018-02-24T11:55:06.246Z,8.40
2018-02-24T11:57:33.798Z,8.20
2018-02-24T12:00:01.361Z,9.23
2018-02-24T12:02:29.646Z,8.73
2018-02-24T12:04:57.941Z,8.80
2018-02-24T12:07:26.220Z,8.87
2018-02-24T12:09:54.478Z,8.20
2018-02-24T12:12:22.206Z,8.90
2018-02-24T12:14:50.626Z,8.20
2018-02-24T12:17:18.296Z,8.30
2018-02-24T12:19:46.755Z,8.93
2018-02-24T12:22:14.328Z,7.33
2018-02-24T12:24:41.858Z,8.00
2018-02-24T12:27:09.377Z,8.40
2018-02-24T12:29:46.966Z,8.90
2018-02-24T12:32:15.347Z,8.00
2018-02-24T12:34:43.141Z,8.33
2018-02-24T12:37:10.943Z,8.30
2018-02-24T12:39:38.498Z,8.00
2018-02-24T12:42:06.066Z,7.93
2018-02-24T12:44:34.584Z,8.20
2018-02-24T12:47:02.142Z,7.90
2018-02-24T12:49:29.664Z,7.63
2018-02-24T12:51:57.157Z,7.47
2018-02-24T12:54:24.676Z,8.20
2018-02-24T12:56:52.174Z,7.40
2018-02-24T12:59:19.678Z,7.27
2018-02-24T13:01:47.446Z,7.10
2018-02-24T13:04:15.077Z,7.30
2018-02-24T13:06:43.555Z,8.47
2018-02-24T13:09:11.797Z,7.23
2018-02-24T13:11:40.173Z,8.53
2018-02-24T13:14:07.670Z,8.60
2018-02-24T13:16:35.972Z,7.27
2018-02-24T13:19:04.382Z,6.60
2018-02-24T13:21:32.444Z,8.87
2018-02-24T13:24:00.004Z,8.67
2018-02-24T13:26:27.520Z,8.30
2018-02-24T13:28:55.026Z,6.57
2018-02-24T13:31:22.549Z,7.80
2018-02-24T13:33:50.054Z,8.50
2018-02-24T13:36:18.086Z,7.63
2018-02-24T13:38:46.105Z,8.00
2018-02-24T13:41:14.889Z,7.80
2018-02-24T13:43:43.705Z,7.40
2018-02-24T13:46:11.717Z,7.70
2018-02-24T13:48:40.990Z,6.90
2018-02-24T13:51:08.778Z,8.00
2018-02-24T13:53:37.293Z,5.50
2018-02-24T13:56:06.056Z,7.10
2018-02-24T13:58:33.902Z,7.00
2018-02-24T14:01:01.449Z,7.60
2018-02-24T14:03:29.417Z,7.10
2018-02-24T14:05:57.109Z,7.60
2018-02-24T14:08:24.622Z,6.20
2018-02-24T14:10:52.901Z,7.03
2018-02-24T14:13:21.198Z,6.27
2018-02-24T14:15:49.478Z,6.47
2018-02-24T14:18:17.834Z,6.40
2018-02-24T14:20:45.342Z,6.90
2018-02-24T14:23:14.144Z,5.60
2018-02-24T14:25:42.818Z,5.57
2018-02-24T14:28:11.572Z,6.23
2018-02-24T14:30:40.052Z,5.03
2018-02-24T14:33:10.022Z,5.80
2018-02-24T14:35:37.638Z,5.33
2018-02-24T14:38:07.283Z,7.93
2018-02-24T14:40:36.840Z,5.60
2018-02-24T14:43:06.340Z,5.70
2018-02-24T14:45:33.980Z,6.07
2018-02-24T14:48:01.626Z,5.70
2018-02-24T14:50:29.211Z,5.50
2018-02-24T14:52:57.495Z,6.10
2018-02-24T14:55:25.766Z,6.20
2018-02-24T14:57:53.540Z,5.70
2018-02-24T15:00:21.523Z,5.90
2018-02-24T15:02:59.231Z,5.63
2018-02-24T15:05:26.843Z,5.60
2018-02-24T15:07:58.230Z,5.47
2018-02-24T15:10:25.917Z,5.57
2018-02-24T15:12:53.438Z,5.33
2018-02-24T15:15:21.725Z,5.33
2018-02-24T15:17:49.977Z,5.77
2018-02-24T15:20:17.537Z,5.70
2018-02-24T15:22:45.257Z,5.17
2018-02-24T15:25:13.569Z,5.00
2018-02-24T15:27:42.375Z,5.27
2018-02-24T15:30:10.102Z,4.70
2018-02-24T15:32:37.729Z,4.83
2018-02-24T15:35:05.261Z,4.50
2018-02-24T15:37:32.753Z,6.70
2018-02-24T15:40:01.007Z,5.33
2018-02-24T15:42:28.759Z,5.20
2018-02-24T15:44:59.566Z,4.93
2018-02-24T15:47:28.795Z,4.70
2018-02-24T15:49:57.962Z,4.67
2018-02-24T15:52:28.397Z,4.80
2018-02-24T15:54:58.909Z,5.50
2018-02-24T15:57:27.842Z,4.40
2018-02-24T15:59:57.541Z,5.10
2018-02-24T16:02:27.230Z,4.50
2018-02-24T16:04:58.230Z,5.10
2018-02-24T16:07:28.861Z,6.00
2018-02-24T16:09:57.506Z,7.27
2018-02-24T16:12:27.563Z,5.70
2018-02-24T16:14:56.119Z,6.40
2018-02-24T16:17:26.204Z,6.20
2018-02-24T16:19:55.573Z,5.30
2018-02-24T16:22:26.597Z,5.93
2018-02-24T16:24:55.881Z,6.33
2018-02-24T16:27:25.100Z,6.23
2018-02-24T16:29:56.097Z,5.90
2018-02-24T16:32:25.766Z,5.77
2018-02-24T16:34:56.939Z,5.47
2018-02-24T16:37:27.105Z,6.37
2018-02-24T16:39:56.976Z,5.80
2018-02-24T16:42:27.183Z,6.47
2018-02-24T16:44:55.910Z,6.13
2018-02-24T16:47:25.031Z,5.83
2018-02-24T16:49:55.685Z,6.03
2018-02-24T16:52:24.835Z,7.20
2018-02-24T16:54:53.397Z,7.70
2018-02-24T16:57:25.268Z,6.45
2018-02-24T16:59:54.498Z,6.68
2018-02-24T17:02:24.066Z,7.22
2018-02-24T17:04:56.010Z,6.62
2018-02-24T17:07:26.404Z,6.65
2018-02-24T17:09:55.344Z,6.57
2018-02-24T17:12:24.644Z,7.60
2018-02-24T17:14:55.197Z,7.62
2018-02-24T17:17:25.982Z,7.78
2018-02-24T17:19:56.647Z,7.22
2018-02-24T17:22:27.128Z,7.25
2018-02-24T17:24:56.843Z,6.93
2018-02-24T17:27:27.976Z,7.40
2018-02-24T17:29:57.675Z,7.12
2018-02-24T17:32:27.587Z,7.80
2018-02-24T17:34:57.536Z,8.18
2018-02-24T17:37:27.873Z,7.80
2018-02-24T17:39:57.985Z,6.80
2018-02-24T17:42:27.553Z,7.97
2018-02-24T17:44:57.105Z,6.95
2018-02-24T17:47:26.894Z,7.72
2018-02-24T17:49:56.765Z,7.03
2018-02-24T17:52:28.059Z,6.53
2018-02-24T17:54:57.433Z,7.65
2018-02-24T17:57:27.705Z,6.75
2018-02-24T17:59:56.754Z,6.95
2018-02-24T18:02:25.363Z,7.20
2018-02-24T18:04:56.957Z,7.25
2018-02-24T18:07:27.014Z,5.80
2018-02-24T18:09:58.338Z,6.43
2018-02-24T18:12:27.996Z,5.70
2018-02-24T18:14:57.684Z,5.93
2018-02-24T18:17:28.018Z,5.43
2018-02-24T18:19:57.213Z,5.62
2018-02-24T18:22:36.147Z,5.47
2018-02-24T18:25:03.646Z,6.65
2018-02-24T18:27:31.933Z,5.65
2018-02-24T18:30:00.205Z,6.00
2018-02-24T18:32:28.691Z,6.85
2018-02-24T18:34:58.532Z,6.28
2018-02-24T18:37:28.622Z,6.50
2018-02-24T18:39:57.696Z,5.00
2018-02-24T18:42:28.606Z,5.12
2018-02-24T18:44:57.846Z,6.85
2018-02-24T18:47:28.031Z,6.15
2018-02-24T18:50:06.862Z,5.70
2018-02-24T18:52:34.403Z,5.70
2018-02-24T18:55:01.897Z,6.10
2018-02-24T18:57:29.813Z,5.80
2018-02-24T18:59:59.191Z,5.93
2018-02-24T19:02:28.372Z,6.12
2018-02-24T19:04:58.018Z,5.15
2018-02-24T19:07:27.537Z,4.50
2018-02-24T19:09:56.670Z,5.05
2018-02-24T19:12:35.854Z,5.68
2018-02-24T19:15:04.162Z,5.53
2018-02-24T19:17:32.442Z,5.32
2018-02-24T19:20:00.704Z,4.32
2018-02-24T19:22:28.633Z,4.32
2018-02-24T19:24:57.902Z,4.10
2018-02-24T19:27:26.693Z,3.95
2018-02-24T19:29:55.183Z,4.18
2018-02-24T19:32:34.062Z,3.47
2018-02-24T19:35:02.334Z,4.47
2018-02-24T19:37:29.848Z,3.72
2018-02-24T19:39:58.027Z,3.70
2018-02-24T19:42:25.756Z,3.12
2018-02-24T19:44:54.635Z,3.83
2018-02-24T19:47:25.643Z,3.47
2018-02-24T19:49:55.898Z,4.32
2018-02-24T19:52:25.092Z,2.80
2018-02-24T19:54:55.568Z,3.33
2018-02-24T19:57:25.725Z,2.72
2018-02-24T19:59:56.119Z,3.10
2018-02-24T20:02:26.730Z,2.92
2018-02-24T20:04:56.941Z,2.80
2018-02-24T20:07:25.880Z,2.70
2018-02-24T20:09:56.580Z,2.58
2018-02-24T20:12:25.410Z,3.30
2018-02-24T20:14:55.610Z,2.70
2018-02-24T20:17:25.956Z,3.00
2018-02-24T20:19:54.566Z,3.72
2018-02-24T20:22:23.047Z,3.03
2018-02-24T20:24:53.610Z,2.47
2018-02-24T20:27:23.908Z,2.55
2018-02-24T20:29:54.477Z,3.75
2018-02-24T20:32:25.471Z,3.20
2018-02-24T20:34:54.826Z,2.83
2018-02-24T20:37:24.955Z,3.47
2018-02-24T20:40:03.753Z,3.47
2018-02-24T20:42:32.046Z,3.35
2018-02-24T20:45:00.324Z,3.85
2018-02-24T20:47:28.837Z,3.28
2018-02-24T20:49:57.434Z,3.60
2018-02-24T20:52:26.891Z,3.60
2018-02-24T20:54:56.070Z,3.33
2018-02-24T20:57:25.321Z,3.28
2018-02-24T21:00:05.674Z,3.55
2018-02-24T21:02:33.165Z,3.60
2018-02-24T21:05:00.680Z,3.55
2018-02-24T21:07:29.373Z,3.20
2018-02-24T21:09:58.101Z,3.67
2018-02-24T21:12:27.714Z,3.65
2018-02-24T21:14:57.810Z,2.80
2018-02-24T21:17:27.365Z,3.55
2018-02-24T21:19:58.013Z,3.25
2018-02-24T21:22:36.958Z,3.45
2018-02-24T21:25:04.493Z,3.50
2018-02-24T21:27:32.753Z,2.90
2018-02-24T21:30:00.250Z,3.15
2018-02-24T21:32:28.964Z,3.33
2018-02-24T21:34:58.039Z,3.30
2018-02-24T21:37:35.962Z,3.40
2018-02-24T21:40:03.456Z,3.55
2018-02-24T21:42:31.737Z,3.37
2018-02-24T21:45:00.143Z,3.50
2018-02-24T21:47:28.742Z,3.70
2018-02-24T21:49:58.957Z,3.35
2018-02-24T21:52:26.787Z,3.40
2018-02-24T21:54:56.176Z,3.25
2018-02-24T21:57:26.968Z,3.12
2018-02-24T21:59:57.131Z,3.72
2018-02-24T22:02:26.213Z,3.00
2018-02-24T22:04:56.742Z,3.00
2018-02-24T22:07:27.214Z,3.53
2018-02-24T22:09:55.444Z,4.07
2018-02-24T22:12:25.178Z,3.70
2018-02-24T22:14:54.951Z,2.90
2018-02-24T22:17:25.438Z,3.20
2018-02-24T22:19:55.683Z,3.40
2018-02-24T22:22:24.628Z,2.90
2018-02-24T22:24:55.814Z,3.00
2018-02-24T22:27:26.334Z,3.35
2018-02-24T22:29:55.978Z,2.50
2018-02-24T22:32:25.036Z,3.12
2018-02-24T22:34:54.522Z,3.22
2018-02-24T22:37:24.556Z,3.30
2018-02-24T22:39:55.213Z,3.78
2018-02-24T22:42:24.592Z,3.10
2018-02-24T22:44:53.916Z,3.20
2018-02-24T22:47:24.033Z,3.40
2018-02-24T22:49:54.115Z,3.45
2018-02-24T22:52:23.834Z,3.05
2018-02-24T22:54:55.795Z,3.35
2018-02-24T22:57:24.788Z,2.70
2018-02-24T22:59:55.770Z,3.10
2018-02-24T23:02:24.628Z,2.50
2018-02-24T23:04:55.826Z,3.30
2018-02-24T23:07:24.978Z,3.00
2018-02-24T23:09:56.433Z,3.25
2018-02-24T23:12:24.416Z,2.67
2018-02-24T23:14:54.960Z,2.97
2018-02-24T23:17:24.821Z,2.97
2018-02-24T23:19:57.227Z,2.47
2018-02-24T23:22:27.103Z,2.50
2018-02-24T23:25:06.211Z,3.08
2018-02-24T23:27:33.737Z,3.85
2018-02-24T23:30:02.010Z,3.37
2018-02-24T23:32:30.195Z,3.00
2018-02-24T23:34:58.280Z,2.80
2018-02-24T23:37:27.949Z,3.20
2018-02-24T23:40:06.841Z,2.90
2018-02-24T23:42:34.421Z,2.92
2018-02-24T23:45:02.701Z,3.33
2018-02-24T23:47:31.126Z,2.58
2018-02-24T23:49:58.642Z,2.85
2018-02-24T23:52:27.646Z,3.37
2018-02-24T23:54:58.105Z,3.10
2018-02-24T23:57:27.352Z,3.55
2018-02-24T23:59:58.539Z,3.00
